EDT,Max TemperatureF,Mean TemperatureF,Min TemperatureF,Max Dew PointF,MeanDew PointF,Min DewpointF,Max Humidity, Mean Humidity, Min Humidity, Max Sea Level PressureIn, Mean Sea Level PressureIn, Min Sea Level PressureIn, Max VisibilityMiles, Mean VisibilityMiles, Min VisibilityMiles, Max Wind SpeedMPH, Mean Wind SpeedMPH, Max Gust SpeedMPH,PrecipitationIn, CloudCover, Events, WindDirDegrees
2014-6-1,85,69,52,64,58,51,100,72,44,30.22,30.16,30.08,10,10,6,14,5,19,0.00,0,,160
2014-6-2,79,73,67,66,63,58,87,74,60,30.15,30.09,29.99,10,10,10,13,7,19,0.01,5,Rain,180
2014-6-3,85,75,64,68,65,59,90,69,47,29.99,29.94,29.86,10,9,2,16,6,23,0.28,5,Rain-Thunderstorm,232
2014-6-4,74,65,56,63,58,55,97,75,53,29.95,29.80,29.72,10,8,2,14,5,22,0.35,6,Rain,48
2014-6-5,71,61,51,56,51,45,93,67,40,29.97,29.88,29.77,10,9,1,17,6,22,0.00,3,,338
2014-6-6,78,63,47,54,48,45,100,66,32,30.05,30.01,29.97,10,7,0,13,3,17,0.00,2,Fog,351
2014-6-7,81,65,49,55,50,46,96,63,30,30.10,30.01,29.92,10,10,10,12,3,16,0.00,1,,144
2014-6-8,72,64,55,66,60,53,93,86,78,29.96,29.85,29.79,10,7,2,15,4,22,0.37,5,Rain-Thunderstorm,330
2014-6-9,75,65,55,63,58,54,93,75,57,29.98,29.95,29.91,10,9,5,10,4,14,0.00,5,,345
2014-6-10,73,67,60,63,61,59,100,84,68,29.97,29.93,29.90,10,5,0,9,2,12,0.06,5,Fog-Rain,132
2014-6-11,80,72,64,66,64,63,100,79,58,29.91,29.85,29.78,10,9,5,15,7,22,0.01,4,Rain,155
2014-6-12,81,72,63,67,64,60,93,77,60,29.86,29.82,29.79,10,9,4,15,5,20,0.13,5,Rain-Thunderstorm,213
2014-6-13,75,66,57,66,60,50,97,73,49,30.00,29.86,29.80,10,8,1,17,6,24,0.31,4,Rain,303
2014-6-14,75,62,49,52,49,46,96,67,38,30.14,30.10,30.02,10,10,9,14,4,18,0.00,0,,357
2014-6-15,83,66,49,56,51,47,93,61,28,30.18,30.13,30.06,10,10,10,10,3,14,0.00,0,,158
2014-6-16,85,73,60,72,64,56,100,80,59,30.15,30.11,30.06,10,8,1,15,3,31,0.43,3,Rain-Thunderstorm,161
2014-6-17,88,77,66,69,67,65,100,73,46,30.12,30.05,29.95,10,7,2,17,7,29,0.00,0,,175
2014-6-18,90,79,68,71,69,66,90,69,47,30.05,30.02,29.96,10,10,2,23,5,35,0.17,2,Rain-Thunderstorm,222
2014-6-19,80,74,67,68,67,65,100,84,67,30.10,30.06,30.01,10,8,2,14,5,18,0.45,6,Rain-Thunderstorm,22
2014-6-20,82,72,61,70,65,60,100,79,58,30.09,30.00,29.92,10,9,2,9,3,13,0.09,5,Rain,98
2014-6-21,74,68,62,66,65,62,100,87,73,29.95,29.92,29.87,10,7,2,13,3,16,0.00,7,,352
2014-6-22,82,70,58,65,59,55,100,71,42,29.99,29.95,29.92,10,9,6,8,2,23,0.01,1,,232
2014-6-23,87,74,61,70,66,60,100,79,57,30.00,29.97,29.94,10,10,7,22,5,31,0.04,2,Rain-Thunderstorm,163
2014-6-24,85,76,67,70,68,66,100,81,61,30.04,29.97,29.89,10,8,1,17,5,25,0.99,5,Rain-Thunderstorm,199
2014-6-25,81,74,66,71,68,66,100,84,67,29.97,29.91,29.87,10,7,1,15,5,18,1.02,7,Rain-Thunderstorm,99
2014-6-26,82,72,62,65,63,61,100,77,54,30.07,30.03,29.99,10,8,2,10,3,15,0.00,4,,355
2014-6-27,85,73,61,67,63,60,100,72,44,30.12,30.10,30.06,10,10,7,7,1,10,0.00,0,,94
2014-6-28,88,75,62,71,66,61,100,73,46,30.18,30.14,30.12,10,7,2,12,2,15,0.00,1,Thunderstorm,160
2014-6-29,86,78,70,72,70,69,100,79,57,30.15,30.10,30.02,10,8,2,17,5,30,0.15,5,Rain-Thunderstorm,168
2014-6-30,84,77,69,72,70,68,100,83,65,30.06,30.00,29.88,10,8,4,13,5,17,0.00,5,,172